createdAt,value
2018-06-01T00:01:25.576Z,23.16
2018-06-01T00:03:53.214Z,23.13
2018-06-01T00:06:20.931Z,23.13
2018-06-01T00:08:48.498Z,23.18
2018-06-01T00:11:16.141Z,23.14
2018-06-01T00:13:43.763Z,23.09
2018-06-01T00:16:11.352Z,23.07
2018-06-01T00:18:38.990Z,23.05
2018-06-01T00:21:06.745Z,23.01
2018-06-01T00:23:34.371Z,22.98
2018-06-01T00:26:01.943Z,22.99
2018-06-01T00:28:29.704Z,23.00
2018-06-01T00:30:57.339Z,23.00
2018-06-01T00:33:24.928Z,22.99
2018-06-01T00:35:52.531Z,23.00
2018-06-01T00:38:20.184Z,23.01
2018-06-01T00:40:47.758Z,23.00
2018-06-01T00:43:15.448Z,23.01
2018-06-01T00:45:43.036Z,23.00
2018-06-01T00:48:10.674Z,22.97
2018-06-01T00:50:38.316Z,22.94
2018-06-01T00:53:05.914Z,22.95
2018-06-01T00:55:33.567Z,22.94
2018-06-01T00:58:01.204Z,22.93
2018-06-01T01:00:28.790Z,22.91
2018-06-01T01:02:56.439Z,22.90
2018-06-01T01:05:24.209Z,22.90
2018-06-01T01:07:51.824Z,22.87
2018-06-01T01:10:19.456Z,22.83
2018-06-01T01:12:47.090Z,22.84
2018-06-01T01:15:14.692Z,22.82
2018-06-01T01:17:42.275Z,22.82
2018-06-01T01:20:09.986Z,22.82
2018-06-01T01:22:37.555Z,22.84
2018-06-01T01:25:05.226Z,22.85
2018-06-01T01:27:32.859Z,22.88
2018-06-01T01:30:00.477Z,22.90
2018-06-01T01:32:28.064Z,22.91
2018-06-01T01:34:55.784Z,22.91
2018-06-01T01:37:31.182Z,22.93
2018-06-01T01:39:58.995Z,22.95
2018-06-01T01:42:26.563Z,22.96
2018-06-01T01:44:54.145Z,22.98
2018-06-01T01:47:22.595Z,23.02
2018-06-01T01:49:55.032Z,23.05
2018-06-01T01:52:22.675Z,23.10
2018-06-01T01:54:50.312Z,23.15
2018-06-01T01:57:17.904Z,23.18
2018-06-01T01:59:45.583Z,23.20
2018-06-01T02:02:13.168Z,23.21
2018-06-01T02:04:40.795Z,23.21
2018-06-01T02:07:08.502Z,23.22
2018-06-01T02:09:36.209Z,23.18
2018-06-01T02:12:03.846Z,23.19
2018-06-01T02:14:32.593Z,23.21
2018-06-01T02:17:00.191Z,23.24
2018-06-01T02:19:27.823Z,23.23
2018-06-01T02:21:55.546Z,23.22
2018-06-01T02:24:23.135Z,23.25
2018-06-01T02:26:50.758Z,23.28
2018-06-01T02:29:18.489Z,23.30
2018-06-01T02:31:46.070Z,23.30
2018-06-01T02:34:13.665Z,23.27
2018-06-01T02:36:41.659Z,23.26
2018-06-01T02:39:09.353Z,23.26
2018-06-01T02:41:37.116Z,23.30
2018-06-01T02:44:04.792Z,23.32
2018-06-01T02:46:32.459Z,23.35
2018-06-01T02:49:00.052Z,23.38
2018-06-01T02:51:27.671Z,23.39
2018-06-01T02:53:55.350Z,23.40
2018-06-01T02:56:23.023Z,23.40
2018-06-01T02:58:50.657Z,23.39
2018-06-01T03:01:18.330Z,23.32
2018-06-01T03:03:45.945Z,23.32
2018-06-01T03:06:13.594Z,23.30
2018-06-01T03:08:41.179Z,23.29
2018-06-01T03:11:08.760Z,23.30
2018-06-01T03:13:36.536Z,23.30
2018-06-01T03:16:04.123Z,23.29
2018-06-01T03:18:31.751Z,23.29
2018-06-01T03:21:00.196Z,23.25
2018-06-01T03:23:27.780Z,23.22
2018-06-01T03:25:55.375Z,23.25
2018-06-01T03:28:23.107Z,23.28
2018-06-01T03:30:50.741Z,23.28
2018-06-01T03:33:18.567Z,23.31
2018-06-01T03:35:46.196Z,23.30
2018-06-01T03:38:13.786Z,23.31
2018-06-01T03:40:41.379Z,23.36
2018-06-01T03:43:09.115Z,23.40
2018-06-01T03:45:36.785Z,23.40
2018-06-01T03:48:04.434Z,23.41
2018-06-01T03:50:32.167Z,23.44
2018-06-01T03:52:59.755Z,23.44
2018-06-01T03:55:27.561Z,23.50
2018-06-01T03:57:55.316Z,23.52
2018-06-01T04:00:22.896Z,23.58
2018-06-01T04:02:50.510Z,23.63
2018-06-01T04:05:18.362Z,23.71
2018-06-01T04:07:45.970Z,23.74
2018-06-01T04:10:13.563Z,23.78
2018-06-01T04:12:41.400Z,23.85
2018-06-01T04:15:09.016Z,23.94
2018-06-01T04:17:36.653Z,23.98
2018-06-01T04:20:04.392Z,24.08
2018-06-01T04:22:31.995Z,24.10
2018-06-01T04:24:59.569Z,24.17
2018-06-01T04:27:27.214Z,24.24
2018-06-01T04:29:54.814Z,24.31
2018-06-01T04:32:22.393Z,24.38
2018-06-01T04:34:50.112Z,24.44
2018-06-01T04:37:17.689Z,24.52
2018-06-01T04:39:45.284Z,24.60
2018-06-01T04:42:12.909Z,24.69
2018-06-01T04:44:41.277Z,24.83
2018-06-01T04:47:08.912Z,24.97
2018-06-01T04:49:36.686Z,25.12
2018-06-01T04:52:04.290Z,25.27
2018-06-01T04:54:31.933Z,25.41
2018-06-01T04:56:59.610Z,25.54
2018-06-01T04:59:27.245Z,25.65
2018-06-01T05:01:54.839Z,25.80
2018-06-01T05:04:22.541Z,25.92
2018-06-01T05:06:50.163Z,26.14
2018-06-01T05:09:17.826Z,26.36
2018-06-01T05:11:45.467Z,26.55
2018-06-01T05:14:13.173Z,26.73
2018-06-01T05:16:40.804Z,26.82
2018-06-01T05:19:08.449Z,27.05
2018-06-01T05:21:36.104Z,27.29
2018-06-01T05:24:03.732Z,27.51
2018-06-01T05:26:31.363Z,27.71
2018-06-01T05:28:59.073Z,27.85
2018-06-01T05:31:26.687Z,27.99
2018-06-01T05:33:54.327Z,28.11
2018-06-01T05:36:22.020Z,28.28
2018-06-01T05:38:49.621Z,28.36
2018-06-01T05:41:17.398Z,28.59
2018-06-01T05:43:45.049Z,28.75
2018-06-01T05:46:12.649Z,28.86
2018-06-01T05:48:40.296Z,28.91
2018-06-01T05:51:08.200Z,29.09
2018-06-01T05:53:35.858Z,29.36
2018-06-01T05:56:03.500Z,29.58
2018-06-01T05:58:31.158Z,29.79
2018-06-01T06:00:58.751Z,29.96
2018-06-01T06:03:26.360Z,29.97
2018-06-01T06:05:53.946Z,29.88
2018-06-01T06:08:21.547Z,29.94
2018-06-01T06:10:49.995Z,29.95
2018-06-01T06:13:18.221Z,29.84
2018-06-01T06:15:46.026Z,29.90
2018-06-01T06:18:13.664Z,29.86
2018-06-01T06:20:41.329Z,29.84
2018-06-01T06:23:08.903Z,30.00
2018-06-01T06:25:36.585Z,30.07
2018-06-01T06:28:04.285Z,30.08
2018-06-01T06:30:31.924Z,30.00
2018-06-01T06:32:59.598Z,29.91
2018-06-01T06:35:27.211Z,30.15
2018-06-01T06:37:54.860Z,30.39
2018-06-01T06:40:22.554Z,30.47
2018-06-01T06:42:50.159Z,30.38
2018-06-01T06:45:17.810Z,30.54
2018-06-01T06:47:45.520Z,30.57
2018-06-01T06:50:13.103Z,30.57
2018-06-01T06:52:40.681Z,30.46
2018-06-01T06:55:08.399Z,30.57
2018-06-01T06:57:35.970Z,30.72
2018-06-01T07:00:03.631Z,30.77
2018-06-01T07:02:31.549Z,30.70
2018-06-01T07:04:59.202Z,30.79
2018-06-01T07:07:26.904Z,30.89
2018-06-01T07:09:54.549Z,31.04
2018-06-01T07:12:22.251Z,30.87
2018-06-01T07:14:49.851Z,30.87
2018-06-01T07:17:17.564Z,30.78
2018-06-01T07:19:45.225Z,30.98
2018-06-01T07:22:12.826Z,31.11
2018-06-01T07:24:40.457Z,31.09
2018-06-01T07:27:08.042Z,31.07
2018-06-01T07:29:35.617Z,31.06
2018-06-01T07:32:03.260Z,31.23
2018-06-01T07:34:30.838Z,31.52
2018-06-01T07:36:58.415Z,31.81
2018-06-01T07:39:26.155Z,31.85
2018-06-01T07:41:53.732Z,31.86
2018-06-01T07:44:21.326Z,31.57
2018-06-01T07:46:48.990Z,31.52
2018-06-01T07:49:16.592Z,31.76
2018-06-01T07:51:44.180Z,31.66
2018-06-01T07:54:12.080Z,31.74
2018-06-01T07:56:39.673Z,31.68
2018-06-01T07:59:07.256Z,31.65
2018-06-01T08:01:34.895Z,31.51
2018-06-01T08:04:02.496Z,31.82
2018-06-01T08:06:30.112Z,32.07
2018-06-01T08:08:57.749Z,32.24
2018-06-01T08:11:25.360Z,32.39
2018-06-01T08:13:52.939Z,32.57
2018-06-01T08:16:20.660Z,32.61
2018-06-01T08:18:48.293Z,32.67
2018-06-01T08:21:15.880Z,32.83
2018-06-01T08:23:43.711Z,33.11
2018-06-01T08:26:11.303Z,33.32
2018-06-01T08:28:38.926Z,33.20
2018-06-01T08:31:06.584Z,33.41
2018-06-01T08:33:34.188Z,33.30
2018-06-01T08:36:01.795Z,33.41
2018-06-01T08:38:29.476Z,33.56
2018-06-01T08:40:57.067Z,33.51
2018-06-01T08:43:24.665Z,33.54
2018-06-01T08:45:52.300Z,33.62
2018-06-01T08:48:19.912Z,33.60
2018-06-01T08:50:47.544Z,33.87
2018-06-01T08:53:15.171Z,33.85
2018-06-01T08:55:42.779Z,33.82
2018-06-01T08:58:10.402Z,33.95
2018-06-01T09:00:38.065Z,34.23
2018-06-01T09:03:05.648Z,34.23
2018-06-01T09:05:33.241Z,34.33
2018-06-01T09:08:00.986Z,34.56
2018-06-01T09:10:28.569Z,34.72
2018-06-01T09:12:56.164Z,34.68
2018-06-01T09:15:23.830Z,34.67
2018-06-01T09:17:51.439Z,34.61
2018-06-01T09:20:19.044Z,34.42
2018-06-01T09:22:46.780Z,34.51
2018-06-01T09:25:14.454Z,34.77
2018-06-01T09:27:42.034Z,34.72
2018-06-01T09:30:09.770Z,34.26
2018-06-01T09:32:37.350Z,34.23
2018-06-01T09:35:04.954Z,34.47
2018-06-01T09:37:32.680Z,34.57
2018-06-01T09:40:01.067Z,34.36
2018-06-01T09:42:28.755Z,33.87
2018-06-01T09:44:56.420Z,33.55
2018-06-01T09:47:24.028Z,33.72
2018-06-01T09:49:51.672Z,34.15
2018-06-01T09:52:19.399Z,34.35
2018-06-01T09:54:46.991Z,34.16
2018-06-01T09:57:14.577Z,33.89
2018-06-01T09:59:42.203Z,33.64
2018-06-01T10:02:09.779Z,33.48
2018-06-01T10:04:37.368Z,33.30
2018-06-01T10:07:05.069Z,33.00
2018-06-01T10:09:32.652Z,32.48
2018-06-01T10:12:00.251Z,32.65
2018-06-01T10:14:27.905Z,32.88
2018-06-01T10:16:55.546Z,33.05
2018-06-01T10:19:23.146Z,33.30
2018-06-01T10:21:50.893Z,33.44
2018-06-01T10:24:18.555Z,33.52
2018-06-01T10:26:46.205Z,33.30
2018-06-01T10:29:13.869Z,33.39
2018-06-01T10:31:41.499Z,33.61
2018-06-01T10:34:09.112Z,33.87
2018-06-01T10:36:36.762Z,34.03
2018-06-01T10:39:04.432Z,33.66
2018-06-01T10:41:32.061Z,33.38
2018-06-01T10:43:59.860Z,33.32
2018-06-01T10:46:28.118Z,33.25
2018-06-01T10:48:55.814Z,33.17
2018-06-01T10:51:23.476Z,33.63
2018-06-01T10:53:51.468Z,34.03
2018-06-01T10:56:19.080Z,34.31
2018-06-01T10:58:46.773Z,34.56
2018-06-01T11:01:14.602Z,34.64
2018-06-01T11:03:42.255Z,34.55
2018-06-01T11:06:10.058Z,34.62
2018-06-01T11:08:37.664Z,34.89
2018-06-01T11:11:05.259Z,35.11
2018-06-01T11:13:33.099Z,35.19
2018-06-01T11:16:00.751Z,35.21
2018-06-01T11:18:28.343Z,35.08
2018-06-01T11:20:55.984Z,34.89
2018-06-01T11:23:23.628Z,34.62
2018-06-01T11:25:51.242Z,34.69
2018-06-01T11:28:18.920Z,34.85
2018-06-01T11:30:46.557Z,35.00
2018-06-01T11:33:14.151Z,35.09
2018-06-01T11:35:41.864Z,35.05
2018-06-01T11:38:09.504Z,35.30
2018-06-01T11:40:37.190Z,35.48
2018-06-01T11:43:04.869Z,35.64
2018-06-01T11:45:32.558Z,35.53
2018-06-01T11:48:00.225Z,35.26
2018-06-01T11:50:28.031Z,34.77
2018-06-01T11:52:55.633Z,34.84
2018-06-01T11:55:23.244Z,34.81
2018-06-01T11:57:50.910Z,34.55
2018-06-01T12:00:18.518Z,34.49
2018-06-01T12:02:46.183Z,33.89
2018-06-01T12:05:13.865Z,33.51
2018-06-01T12:07:41.455Z,33.35
2018-06-01T12:10:09.145Z,33.02
2018-06-01T12:12:36.857Z,32.78
2018-06-01T12:15:04.554Z,32.79
2018-06-01T12:17:32.313Z,32.86
2018-06-01T12:19:59.942Z,32.96
2018-06-01T12:22:27.854Z,33.25
2018-06-01T12:24:55.566Z,33.49
2018-06-01T12:27:23.305Z,33.44
2018-06-01T12:29:50.909Z,33.15
2018-06-01T12:32:18.564Z,33.07
2018-06-01T12:34:46.271Z,33.13
2018-06-01T12:37:13.936Z,33.09
2018-06-01T12:39:41.521Z,33.03
2018-06-01T12:42:09.179Z,32.89
2018-06-01T12:44:36.876Z,32.85
2018-06-01T12:47:04.549Z,32.92
2018-06-01T12:49:32.199Z,33.12
2018-06-01T12:51:59.792Z,33.36
2018-06-01T12:54:27.444Z,33.53
2018-06-01T12:56:55.113Z,33.62
2018-06-01T12:59:22.705Z,33.78
2018-06-01T13:01:50.315Z,33.83
2018-06-01T13:04:17.956Z,33.89
2018-06-01T13:06:45.535Z,33.91
2018-06-01T13:09:13.182Z,33.63
2018-06-01T13:11:40.827Z,33.51
2018-06-01T13:14:08.408Z,33.48
2018-06-01T13:16:36.027Z,33.47
2018-06-01T13:19:03.694Z,33.46
2018-06-01T13:21:31.355Z,33.44
2018-06-01T13:23:58.996Z,33.35
2018-06-01T13:26:26.764Z,33.19
2018-06-01T13:28:54.364Z,33.04
2018-06-01T13:31:21.952Z,32.75
2018-06-01T13:33:49.708Z,32.40
2018-06-01T13:36:17.319Z,32.22
2018-06-01T13:38:44.932Z,32.12
2018-06-01T13:41:12.663Z,32.07
2018-06-01T13:43:40.318Z,31.98
2018-06-01T13:46:08.696Z,32.00
2018-06-01T13:48:36.417Z,32.12
2018-06-01T13:51:04.033Z,32.17
2018-06-01T13:53:31.636Z,32.24
2018-06-01T13:55:59.265Z,32.29
2018-06-01T13:58:26.902Z,32.42
2018-06-01T14:00:54.512Z,32.55
2018-06-01T14:03:22.145Z,32.54
2018-06-01T14:05:49.961Z,32.51
2018-06-01T14:08:17.617Z,32.57
2018-06-01T14:10:45.343Z,32.48
2018-06-01T14:13:12.934Z,32.49
2018-06-01T14:15:40.615Z,32.43
2018-06-01T14:18:08.256Z,32.31
2018-06-01T14:20:35.853Z,32.42
2018-06-01T14:23:03.474Z,32.41
2018-06-01T14:25:31.121Z,32.33
2018-06-01T14:27:58.731Z,32.33
2018-06-01T14:30:26.405Z,32.21
2018-06-01T14:32:54.064Z,32.13
2018-06-01T14:35:21.701Z,32.09
2018-06-01T14:37:49.350Z,31.94
2018-06-01T14:40:17.109Z,31.74
2018-06-01T14:42:44.801Z,31.59
2018-06-01T14:45:12.404Z,31.44
2018-06-01T14:47:40.143Z,31.35
2018-06-01T14:50:07.796Z,31.32
2018-06-01T14:52:35.371Z,31.31
2018-06-01T14:55:03.057Z,31.27
2018-06-01T14:57:30.754Z,31.26
2018-06-01T14:59:58.342Z,31.25
2018-06-01T15:02:25.980Z,31.23
2018-06-01T15:04:53.626Z,31.11
2018-06-01T15:07:21.225Z,31.05
2018-06-01T15:09:48.864Z,31.02
2018-06-01T15:12:16.451Z,30.98
2018-06-01T15:14:44.045Z,30.97
2018-06-01T15:17:11.693Z,30.99
2018-06-01T15:19:39.286Z,30.94
2018-06-01T15:22:06.974Z,30.92
2018-06-01T15:24:34.696Z,30.87
2018-06-01T15:27:02.264Z,30.83
2018-06-01T15:29:29.929Z,30.80
2018-06-01T15:31:57.755Z,30.79
2018-06-01T15:34:25.362Z,30.76
2018-06-01T15:36:53.055Z,30.71
2018-06-01T15:39:20.757Z,30.69
2018-06-01T15:41:48.345Z,30.65
2018-06-01T15:44:16.005Z,30.66
2018-06-01T15:46:43.736Z,30.62
2018-06-01T15:49:11.336Z,30.62
2018-06-01T15:51:39.457Z,30.64
2018-06-01T15:54:07.730Z,30.61
2018-06-01T15:56:35.358Z,30.60
2018-06-01T15:59:02.996Z,30.59
2018-06-01T16:01:30.744Z,30.55
2018-06-01T16:03:58.348Z,30.47
2018-06-01T16:06:26.045Z,30.42
2018-06-01T16:08:53.700Z,30.41
2018-06-01T16:11:21.371Z,30.42
2018-06-01T16:13:49.014Z,30.38
2018-06-01T16:16:16.714Z,30.37
2018-06-01T16:18:44.295Z,30.32
2018-06-01T16:21:11.894Z,30.25
2018-06-01T16:23:39.556Z,30.17
2018-06-01T16:26:07.168Z,30.11
2018-06-01T16:28:34.813Z,30.06
2018-06-01T16:31:02.556Z,30.02
2018-06-01T16:33:30.159Z,29.99
2018-06-01T16:35:57.780Z,29.93
2018-06-01T16:38:25.590Z,29.87
2018-06-01T16:40:53.201Z,29.80
2018-06-01T16:43:20.787Z,29.74
2018-06-01T16:45:48.511Z,29.67
2018-06-01T16:48:16.177Z,29.63
2018-06-01T16:50:43.761Z,29.61
2018-06-01T16:53:11.511Z,29.59
2018-06-01T16:55:39.108Z,29.57
2018-06-01T16:58:06.718Z,29.50
2018-06-01T17:00:34.369Z,29.42
2018-06-01T17:03:01.971Z,29.37
2018-06-01T17:05:29.552Z,29.32
2018-06-01T17:07:57.233Z,29.23
2018-06-01T17:10:24.824Z,29.17
2018-06-01T17:12:52.439Z,29.06
2018-06-01T17:15:20.081Z,28.98
2018-06-01T17:17:47.679Z,28.89
2018-06-01T17:20:15.274Z,28.81
2018-06-01T17:22:42.949Z,28.72
2018-06-01T17:25:10.547Z,28.63
2018-06-01T17:27:38.170Z,28.53
2018-06-01T17:30:06.912Z,28.43
2018-06-01T17:32:34.540Z,28.34
2018-06-01T17:35:02.124Z,28.27
2018-06-01T17:37:29.768Z,28.19
2018-06-01T17:39:57.384Z,28.09
2018-06-01T17:42:25.054Z,28.01
2018-06-01T17:44:52.777Z,27.93
2018-06-01T17:47:20.409Z,27.89
2018-06-01T17:49:48.045Z,27.83
2018-06-01T17:52:15.825Z,27.81
2018-06-01T17:54:43.490Z,27.78
2018-06-01T17:57:11.067Z,27.80
2018-06-01T17:59:39.360Z,27.76
2018-06-01T18:02:07.011Z,27.74
2018-06-01T18:04:34.634Z,27.71
2018-06-01T18:07:02.264Z,27.69
2018-06-01T18:09:29.883Z,27.68
2018-06-01T18:11:57.479Z,27.66
2018-06-01T18:14:25.108Z,27.64
2018-06-01T18:16:52.711Z,27.62
2018-06-01T18:19:20.407Z,27.57
2018-06-01T18:21:48.055Z,27.53
2018-06-01T18:24:15.639Z,27.45
2018-06-01T18:26:43.289Z,27.33
2018-06-01T18:29:11.073Z,27.23
2018-06-01T18:31:38.658Z,27.17
2018-06-01T18:34:06.324Z,27.07
2018-06-01T18:36:34.114Z,27.02
2018-06-01T18:39:01.714Z,26.91
2018-06-01T18:41:29.361Z,26.90
2018-06-01T18:43:57.027Z,26.91
2018-06-01T18:46:24.644Z,26.94
2018-06-01T18:48:52.228Z,26.83
2018-06-01T18:51:19.936Z,26.74
2018-06-01T18:53:47.574Z,26.66
2018-06-01T18:56:15.170Z,26.50
2018-06-01T18:58:42.799Z,26.40
2018-06-01T19:01:10.470Z,26.29
2018-06-01T19:03:38.091Z,26.15
2018-06-01T19:06:06.632Z,25.94
2018-06-01T19:08:34.225Z,25.81
2018-06-01T19:11:01.818Z,25.76
2018-06-01T19:13:29.471Z,25.72
2018-06-01T19:15:57.125Z,25.67
2018-06-01T19:18:24.766Z,25.60
2018-06-01T19:20:52.751Z,25.56
2018-06-01T19:23:20.388Z,25.51
2018-06-01T19:25:47.976Z,25.31
2018-06-01T19:28:15.615Z,25.19
2018-06-01T19:30:43.207Z,25.09
2018-06-01T19:33:10.818Z,25.03
2018-06-01T19:35:38.567Z,24.92
2018-06-01T19:38:06.185Z,24.80
2018-06-01T19:40:33.779Z,24.71
2018-06-01T19:43:01.496Z,24.71
2018-06-01T19:45:29.088Z,24.64
2018-06-01T19:47:56.721Z,24.60
2018-06-01T19:50:24.420Z,24.49
2018-06-01T19:52:52.071Z,24.42
2018-06-01T19:55:19.737Z,24.38
2018-06-01T19:57:47.516Z,24.36
2018-06-01T20:00:15.163Z,24.34
2018-06-01T20:02:42.829Z,24.34
2018-06-01T20:05:11.505Z,24.28
2018-06-01T20:07:39.820Z,24.22
2018-06-01T20:10:07.417Z,24.17
2018-06-01T20:12:35.089Z,24.09
2018-06-01T20:15:02.684Z,24.06
2018-06-01T20:17:30.334Z,24.01
2018-06-01T20:19:58.069Z,23.97
2018-06-01T20:22:25.647Z,23.93
2018-06-01T20:24:53.222Z,23.92
2018-06-01T20:27:20.900Z,23.87
2018-06-01T20:29:48.495Z,23.83
2018-06-01T20:32:16.104Z,23.81
2018-06-01T20:34:44.768Z,23.71
2018-06-01T20:37:13.636Z,23.66
2018-06-01T20:39:41.291Z,23.52
2018-06-01T20:42:08.916Z,23.44
2018-06-01T20:44:36.509Z,23.43
2018-06-01T20:47:04.121Z,23.34
2018-06-01T20:49:31.745Z,23.28
2018-06-01T20:51:59.679Z,23.25
2018-06-01T20:54:28.159Z,23.23
2018-06-01T20:56:55.849Z,23.14
2018-06-01T20:59:23.439Z,23.14
2018-06-01T21:01:51.080Z,23.15
2018-06-01T21:04:18.776Z,23.16
2018-06-01T21:06:46.358Z,23.16
2018-06-01T21:09:14.020Z,23.18
2018-06-01T21:11:41.754Z,23.21
2018-06-01T21:14:09.420Z,23.27
2018-06-01T21:16:37.004Z,23.24
2018-06-01T21:19:04.794Z,23.26
2018-06-01T21:21:32.500Z,23.19
2018-06-01T21:24:00.092Z,23.13
2018-06-01T21:26:27.738Z,23.10
2018-06-01T21:28:55.391Z,23.03
2018-06-01T21:31:23.121Z,23.03
2018-06-01T21:33:50.769Z,23.02
2018-06-01T21:36:18.351Z,23.06
2018-06-01T21:38:45.960Z,23.06
2018-06-01T21:41:14.599Z,23.03
2018-06-01T21:43:42.183Z,22.99
2018-06-01T21:46:09.862Z,22.92
2018-06-01T21:48:37.517Z,22.86
2018-06-01T21:51:05.190Z,22.84
2018-06-01T21:53:32.854Z,22.77
2018-06-01T21:56:00.494Z,22.66
2018-06-01T21:58:28.144Z,22.60
2018-06-01T22:00:55.763Z,22.57
2018-06-01T22:03:23.511Z,22.54
2018-06-01T22:05:51.095Z,22.47
2018-06-01T22:08:18.701Z,22.32
2018-06-01T22:10:46.497Z,22.28
2018-06-01T22:13:14.160Z,22.24
2018-06-01T22:15:41.820Z,22.20
2018-06-01T22:18:09.525Z,22.13
2018-06-01T22:20:37.192Z,22.09
2018-06-01T22:23:04.788Z,22.06
2018-06-01T22:25:32.509Z,22.01
2018-06-01T22:28:00.104Z,21.97
2018-06-01T22:30:27.750Z,21.93
2018-06-01T22:32:55.424Z,21.92
2018-06-01T22:35:23.110Z,21.90
2018-06-01T22:37:50.755Z,21.85
2018-06-01T22:40:18.506Z,21.82
2018-06-01T22:42:46.078Z,21.79
2018-06-01T22:45:13.725Z,21.77
2018-06-01T22:47:41.446Z,21.75
2018-06-01T22:50:09.051Z,21.74
2018-06-01T22:52:36.631Z,21.74
2018-06-01T22:55:04.370Z,21.75
2018-06-01T22:57:32.013Z,21.73
2018-06-01T22:59:59.612Z,21.71
2018-06-01T23:02:27.336Z,21.70
2018-06-01T23:04:54.972Z,21.67
2018-06-01T23:07:22.560Z,21.60
2018-06-01T23:09:50.207Z,21.49
2018-06-01T23:12:17.787Z,21.39
2018-06-01T23:14:45.421Z,21.28
2018-06-01T23:17:13.209Z,21.22
2018-06-01T23:19:40.798Z,21.17
2018-06-01T23:22:08.433Z,21.12
2018-06-01T23:24:36.068Z,21.07
2018-06-01T23:27:03.691Z,21.04
2018-06-01T23:29:31.281Z,21.02
2018-06-01T23:31:59.427Z,20.94
2018-06-01T23:34:27.022Z,20.84
2018-06-01T23:36:55.624Z,20.77
2018-06-01T23:39:23.437Z,20.66
2018-06-01T23:41:51.111Z,20.58
2018-06-01T23:44:18.758Z,20.48
2018-06-01T23:46:46.387Z,20.38
2018-06-01T23:49:13.995Z,20.30
2018-06-01T23:51:41.581Z,20.25
2018-06-01T23:54:09.303Z,20.27
2018-06-01T23:56:36.963Z,20.22
2018-06-01T23:59:04.539Z,20.07
